Time;durP1;ratioP1;P1;durP2;ratioP2;P2;SDS_P1;SDS_P2;PMS_P1;PMS_P2;Temp;Humidity;BMP_temperature;BMP_pressure;BME280_temperature;BME280_humidity;BME280_pressure;Samples;Min_cycle;Max_cycle;Signal;HPM_P1;HPM_P2
2021/11/25 00:01:01;;;;;;;0.20;0.20;;;;;;;3.96;100.00;100815.88;5065692;28;20060;-83
2021/11/25 00:03:36;;;;;;;0.20;0.20;;;;;;;3.94;100.00;100813.41;5063918;28;20493;-83
2021/11/25 00:06:09;;;;;;;0.20;0.20;;;;;;;3.95;100.00;100806.97;5065402;28;20056;-82
2021/11/25 00:08:42;;;;;;;0.20;0.20;;;;;;;4.05;100.00;100809.09;5066075;28;20071;-83
2021/11/25 00:11:16;;;;;;;0.20;0.20;;;;;;;3.96;100.00;100797.81;5058856;28;20485;-83
2021/11/25 00:13:49;;;;;;;0.20;0.20;;;;;;;3.97;100.00;100793.28;5064088;28;20052;-83
2021/11/25 00:16:22;;;;;;;0.20;0.20;;;;;;;3.95;100.00;100785.44;5061755;28;20044;-83
2021/11/25 00:18:52;;;;;;;0.20;0.20;;;;;;;3.93;100.00;100782.13;5065747;28;20056;-83
2021/11/25 00:21:25;;;;;;;0.20;0.20;;;;;;;3.93;100.00;100776.75;5064897;28;20060;-83
2021/11/25 00:23:53;;;;;;;0.20;0.20;;;;;;;3.98;100.00;100784.13;5062733;28;20049;-84
2021/11/25 00:26:22;;;;;;;0.20;0.20;;;;;;;3.96;100.00;100772.78;5064822;28;20044;-84
2021/11/25 00:28:55;;;;;;;0.20;0.20;;;;;;;3.93;100.00;100771.38;5062741;28;20045;-84
2021/11/25 00:31:23;;;;;;;0.20;0.20;;;;;;;3.90;100.00;100778.03;5062824;28;20067;-84
2021/11/25 00:33:58;;;;;;;0.30;0.30;;;;;;;3.92;100.00;100775.13;5060440;28;20056;-84
2021/11/25 00:36:31;;;;;;;0.20;0.20;;;;;;;3.85;100.00;100769.03;5063328;28;20059;-84
2021/11/25 00:39:04;;;;;;;0.20;0.20;;;;;;;3.89;100.00;100767.50;5068385;28;20059;-83
2021/11/25 00:41:33;;;;;;;0.30;0.30;;;;;;;3.83;100.00;100757.69;5063140;28;20044;-83
2021/11/25 00:44:06;;;;;;;0.15;0.15;;;;;;;3.85;100.00;100761.78;5070738;28;20048;-83
2021/11/25 00:46:39;;;;;;;0.28;0.28;;;;;;;3.82;100.00;100754.16;5062460;28;20044;-84
2021/11/25 00:49:14;;;;;;;0.20;0.20;;;;;;;3.90;100.00;100758.38;5065399;28;20056;-83
2021/11/25 00:51:42;;;;;;;0.20;0.20;;;;;;;3.97;100.00;100753.69;5060096;28;20139;-83
2021/11/25 00:54:15;;;;;;;0.20;0.20;;;;;;;3.86;100.00;100730.28;5064843;28;20040;-83
2021/11/25 00:56:49;;;;;;;0.20;0.20;;;;;;;3.83;100.00;100736.16;5066481;28;20037;-83
2021/11/25 00:59:17;;;;;;;0.20;0.20;;;;;;;3.86;100.00;100731.09;5063312;28;20048;-83
2021/11/25 01:01:50;;;;;;;0.13;0.13;;;;;;;3.86;100.00;100730.28;5065932;28;20057;-83
2021/11/25 01:04:22;;;;;;;0.20;0.20;;;;;;;3.88;100.00;100731.69;5064750;28;20087;-84
2021/11/25 01:06:50;;;;;;;0.20;0.20;;;;;;;3.89;100.00;100725.25;5066258;28;20052;-83
2021/11/25 01:09:23;;;;;;;0.20;0.20;;;;;;;3.83;100.00;100730.75;5067235;28;20067;-83
2021/11/25 01:12:01;;;;;;;0.10;0.10;;;;;;;3.81;100.00;100717.53;5063822;28;20630;-84
2021/11/25 01:14:36;;;;;;;0.20;0.20;;;;;;;3.82;100.00;100724.53;5060811;28;20044;-83
2021/11/25 01:17:10;;;;;;;0.20;0.20;;;;;;;3.81;100.00;100711.31;5058937;28;20059;-83
2021/11/25 01:19:44;;;;;;;0.20;0.20;;;;;;;3.84;100.00;100724.31;5061776;28;20048;-83
2021/11/25 01:22:13;;;;;;;0.20;0.20;;;;;;;3.75;100.00;100721.97;5063343;28;20068;-83
2021/11/25 01:24:46;;;;;;;0.20;0.20;;;;;;;3.83;100.00;100723.50;5068085;28;20040;-84
2021/11/25 01:27:16;;;;;;;0.17;0.17;;;;;;;3.82;100.00;100718.34;5062725;28;20049;-83
2021/11/25 01:29:49;;;;;;;0.20;0.20;;;;;;;3.81;100.00;100719.38;5064246;28;20044;-83
2021/11/25 01:32:22;;;;;;;0.20;0.20;;;;;;;3.78;100.00;100720.69;5075822;28;20057;-84
2021/11/25 01:34:52;;;;;;;0.20;0.20;;;;;;;3.79;100.00;100725.00;5062312;28;20056;-84
2021/11/25 01:37:23;;;;;;;0.20;0.20;;;;;;;3.78;100.00;100717.97;5061985;28;20059;-83
2021/11/25 01:39:57;;;;;;;0.20;0.20;;;;;;;3.81;100.00;100716.69;5059310;28;20052;-84
2021/11/25 01:42:30;;;;;;;0.25;0.25;;;;;;;3.77;100.00;100710.16;5065909;28;20044;-83
2021/11/25 01:45:04;;;;;;;0.20;0.20;;;;;;;3.80;100.00;100699.75;5064416;28;20048;-84
2021/11/25 01:47:41;;;;;;;0.20;0.20;;;;;;;3.74;100.00;100693.44;5065103;28;20056;-83
2021/11/25 01:50:17;;;;;;;0.20;0.20;;;;;;;3.80;100.00;100693.50;5070533;28;20511;-84
2021/11/25 01:52:51;;;;;;;0.20;0.20;;;;;;;3.80;100.00;100685.44;5049356;28;20052;-83
2021/11/25 01:55:21;;;;;;;0.20;0.20;;;;;;;3.70;100.00;100678.78;5068375;28;20052;-83
2021/11/25 01:57:54;;;;;;;0.20;0.20;;;;;;;3.68;100.00;100663.94;5065440;28;20060;-83
2021/11/25 02:00:27;;;;;;;0.20;0.20;;;;;;;3.75;100.00;100672.69;5070253;28;20053;-83
2021/11/25 02:03:03;;;;;;;0.20;0.20;;;;;;;3.63;100.00;100661.91;5068646;28;20067;-83
2021/11/25 02:05:33;;;;;;;0.20;0.20;;;;;;;3.68;100.00;100661.25;5069434;28;20097;-83
2021/11/25 02:08:02;;;;;;;0.20;0.20;;;;;;;3.67;100.00;100657.72;5061710;28;20049;-84
2021/11/25 02:10:30;;;;;;;0.20;0.20;;;;;;;3.59;100.00;100636.56;5067819;28;20063;-83
2021/11/25 02:13:04;;;;;;;0.20;0.20;;;;;;;3.67;100.00;100643.44;5065823;28;20509;-82
2021/11/25 02:15:38;;;;;;;0.20;0.20;;;;;;;3.69;100.00;100642.16;5066791;28;20400;-82
2021/11/25 02:18:14;;;;;;;0.20;0.20;;;;;;;3.65;100.00;100650.94;5068718;28;20059;-83
2021/11/25 02:20:45;;;;;;;0.20;0.20;;;;;;;3.67;100.00;100635.38;5065161;28;20083;-82
2021/11/25 02:23:20;;;;;;;0.20;0.20;;;;;;;3.64;100.00;100639.34;5061494;28;20057;-82
2021/11/25 02:25:49;;;;;;;0.20;0.20;;;;;;;3.66;100.00;100633.72;5063281;28;20496;-82
2021/11/25 02:28:25;;;;;;;0.20;0.20;;;;;;;3.64;100.00;100627.78;5068042;28;20052;-84
2021/11/25 02:30:54;;;;;;;0.20;0.20;;;;;;;3.66;100.00;100631.03;5069436;28;20056;-84
2021/11/25 02:33:22;;;;;;;0.20;0.20;;;;;;;3.66;100.00;100618.41;5066503;28;20044;-84
2021/11/25 02:35:58;;;;;;;0.20;0.20;;;;;;;3.69;100.00;100609.84;5068138;28;20408;-83
2021/11/25 02:38:31;;;;;;;0.20;0.20;;;;;;;3.69;100.00;100604.47;5065062;28;20055;-83
2021/11/25 02:41:00;;;;;;;0.20;0.20;;;;;;;3.65;100.00;100605.19;5066776;28;20045;-83
2021/11/25 02:43:36;;;;;;;0.20;0.20;;;;;;;3.56;100.00;100586.72;5063923;28;20067;-84
2021/11/25 02:46:13;;;;;;;0.25;0.25;;;;;;;3.67;100.00;100593.13;5067823;28;20409;-84
2021/11/25 02:48:48;;;;;;;0.20;0.20;;;;;;;3.66;100.00;100594.19;5073672;28;20394;-83
2021/11/25 02:51:24;;;;;;;0.20;0.20;;;;;;;3.70;100.00;100594.53;5067085;28;20033;-84
2021/11/25 02:53:59;;;;;;;0.10;0.10;;;;;;;3.64;100.00;100593.59;5066921;28;20052;-83
2021/11/25 02:56:30;;;;;;;0.30;0.30;;;;;;;3.63;100.00;100585.75;5070630;28;20048;-83
2021/11/25 02:59:03;;;;;;;0.10;0.10;;;;;;;3.60;100.00;100580.84;5071955;28;20052;-83
2021/11/25 03:01:38;;;;;;;0.20;0.20;;;;;;;3.65;100.00;100575.59;5071277;28;20396;-83
2021/11/25 03:04:08;;;;;;;0.20;0.20;;;;;;;3.63;100.00;100565.03;5065899;28;20373;-83
2021/11/25 03:06:42;;;;;;;0.20;0.20;;;;;;;3.57;100.00;100555.22;5065680;28;20068;-83
2021/11/25 03:09:16;;;;;;;0.20;0.20;;;;;;;3.63;100.00;100559.66;5066942;28;20055;-83
2021/11/25 03:11:53;;;;;;;0.20;0.20;;;;;;;3.58;100.00;100557.69;5068940;28;20036;-84
2021/11/25 03:14:26;;;;;;;0.20;0.20;;;;;;;3.56;100.00;100551.72;5069645;28;20055;-83
2021/11/25 03:16:59;;;;;;;0.20;0.20;;;;;;;3.56;100.00;100564.34;5071131;28;20302;-83
2021/11/25 03:19:33;;;;;;;0.20;0.20;;;;;;;3.54;100.00;100556.53;5067416;28;20041;-83
2021/11/25 03:22:08;;;;;;;0.20;0.20;;;;;;;3.54;100.00;100547.63;5063753;28;20049;-82
2021/11/25 03:24:36;;;;;;;0.20;0.20;;;;;;;3.51;100.00;100553.50;5063074;28;20072;-84
2021/11/25 03:27:09;;;;;;;0.20;0.20;;;;;;;3.49;100.00;100553.72;5069362;28;20052;-83
2021/11/25 03:29:43;;;;;;;0.20;0.20;;;;;;;3.54;100.00;100545.75;5066902;28;20052;-83
2021/11/25 03:32:16;;;;;;;0.20;0.20;;;;;;;3.48;100.00;100537.81;5071176;28;20044;-84
2021/11/25 03:34:49;;;;;;;0.20;0.20;;;;;;;3.44;100.00;100528.56;5069056;28;20059;-83
2021/11/25 03:37:24;;;;;;;0.20;0.20;;;;;;;3.44;100.00;100515.13;5063656;28;20056;-84
2021/11/25 03:39:57;;;;;;;0.20;0.20;;;;;;;3.45;100.00;100511.38;5069384;28;20052;-83
2021/11/25 03:42:31;;;;;;;0.20;0.20;;;;;;;3.48;100.00;100506.34;5068082;28;20518;-84
2021/11/25 03:45:05;;;;;;;0.30;0.30;;;;;;;3.33;100.00;100479.94;5067152;28;20060;-84
2021/11/25 03:47:33;;;;;;;0.20;0.20;;;;;;;3.38;100.00;100489.97;5074811;28;20063;-83
2021/11/25 03:50:07;;;;;;;0.20;0.20;;;;;;;3.34;100.00;100486.97;5068891;28;20052;-83
2021/11/25 03:52:42;;;;;;;0.20;0.20;;;;;;;3.38;100.00;100490.81;5065499;28;20107;-84
2021/11/25 03:55:18;;;;;;;0.20;0.20;;;;;;;3.28;100.00;100474.44;5062284;28;20063;-83
2021/11/25 03:57:52;;;;;;;0.10;0.10;;;;;;;3.37;100.00;100477.56;5065767;28;20437;-84
2021/11/25 04:00:27;;;;;;;0.20;0.20;;;;;;;3.33;100.00;100488.00;5063226;28;20055;-83
2021/11/25 04:03:02;;;;;;;0.20;0.20;;;;;;;3.36;100.00;100478.66;5049694;28;20048;-84
2021/11/25 04:05:35;;;;;;;0.20;0.20;;;;;;;3.30;100.00;100477.72;5066874;28;20048;-84
2021/11/25 04:08:10;;;;;;;0.20;0.20;;;;;;;3.19;100.00;100479.38;5068199;28;20036;-83
2021/11/25 04:10:44;;;;;;;0.20;0.20;;;;;;;3.12;100.00;100475.16;5069630;28;20044;-83
2021/11/25 04:13:12;;;;;;;0.20;0.20;;;;;;;3.08;100.00;100471.31;5063868;28;20048;-83
2021/11/25 04:15:46;;;;;;;0.20;0.20;;;;;;;3.10;100.00;100475.41;5070944;28;20044;-83
2021/11/25 04:18:19;;;;;;;0.20;0.20;;;;;;;3.11;100.00;100477.03;5068702;28;20048;-83
2021/11/25 04:20:47;;;;;;;0.20;0.20;;;;;;;3.14;100.00;100484.63;5068083;28;20048;-83
2021/11/25 04:23:23;;;;;;;0.30;0.30;;;;;;;3.15;100.00;100480.06;5062154;28;20073;-83
2021/11/25 04:25:56;;;;;;;0.22;0.22;;;;;;;3.18;100.00;100471.56;5065433;28;20227;-83
2021/11/25 04:28:24;;;;;;;0.20;0.20;;;;;;;3.19;100.00;100467.78;5064591;28;20044;-83
2021/11/25 04:36:50;;;;;;;0.13;0.13;;;;;;;3.15;100.00;100464.78;5052580;28;20060;-84
2021/11/25 04:39:20;;;;;;;0.10;0.10;;;;;;;3.17;100.00;100459.16;5072519;28;20040;-84
2021/11/25 04:41:53;;;;;;;0.17;0.17;;;;;;;3.15;100.00;100447.78;5067149;28;20481;-83
2021/11/25 04:44:26;;;;;;;0.20;0.20;;;;;;;3.13;100.00;100442.66;5066257;28;20484;-84
2021/11/25 04:47:01;;;;;;;0.10;0.10;;;;;;;3.11;100.00;100438.56;5066205;28;20075;-83
2021/11/25 04:49:29;;;;;;;0.20;0.20;;;;;;;3.10;100.00;100437.75;5069697;28;20071;-84
2021/11/25 04:52:03;;;;;;;0.17;0.17;;;;;;;3.10;100.00;100440.44;5068188;28;20462;-84
2021/11/25 04:54:37;;;;;;;0.20;0.20;;;;;;;3.03;100.00;100416.38;5058638;28;20049;-84
2021/11/25 04:57:11;;;;;;;0.20;0.20;;;;;;;3.09;100.00;100429.94;5068699;28;20076;-84
2021/11/25 04:59:44;;;;;;;0.20;0.20;;;;;;;3.09;100.00;100429.94;5068156;28;20045;-84
2021/11/25 05:02:18;;;;;;;0.25;0.25;;;;;;;3.13;100.00;100428.41;5072156;28;20391;-84
2021/11/25 05:04:46;;;;;;;0.20;0.20;;;;;;;3.16;100.00;100422.56;5065379;28;20071;-83
2021/11/25 05:07:15;;;;;;;0.20;0.20;;;;;;;3.12;100.00;100427.59;5068817;28;20056;-83
2021/11/25 05:09:49;;;;;;;0.20;0.20;;;;;;;3.12;100.00;100435.66;5067580;28;20049;-83
2021/11/25 05:12:22;;;;;;;0.20;0.20;;;;;;;3.09;100.00;100428.06;5069168;28;20404;-83
2021/11/25 05:14:56;;;;;;;0.20;0.20;;;;;;;3.12;100.00;100429.47;5064518;28;20045;-84
2021/11/25 05:17:24;;;;;;;0.20;0.20;;;;;;;3.03;100.00;100405.63;5058366;28;20064;-84
2021/11/25 05:19:57;;;;;;;0.10;0.10;;;;;;;3.12;100.00;100419.53;5062197;28;20053;-83
2021/11/25 05:22:31;;;;;;;0.20;0.20;;;;;;;3.15;100.00;100419.06;5058352;28;20396;-83
2021/11/25 05:25:00;;;;;;;0.10;0.10;;;;;;;3.11;100.00;100428.66;5067154;28;20045;-83
2021/11/25 05:27:34;;;;;;;0.10;0.10;;;;;;;3.14;100.00;100428.16;5066213;28;20378;-83
2021/11/25 05:30:10;;;;;;;0.20;0.20;;;;;;;3.07;100.00;100422.09;5065924;28;20139;-83
2021/11/25 05:32:39;;;;;;;0.20;0.20;;;;;;;3.15;100.00;100421.75;5064647;28;20048;-83
2021/11/25 05:35:14;;;;;;;0.10;0.10;;;;;;;3.08;100.00;100413.00;5067086;28;20048;-83
2021/11/25 05:37:48;;;;;;;0.20;0.20;;;;;;;3.14;100.00;100408.53;5066604;28;20041;-84
2021/11/25 05:40:23;;;;;;;0.20;0.20;;;;;;;3.14;100.00;100421.97;5065083;28;20040;-83
2021/11/25 05:42:52;;;;;;;0.30;0.30;;;;;;;3.13;100.00;100415.78;5068654;28;20067;-83
2021/11/25 05:45:25;;;;;;;0.20;0.20;;;;;;;3.11;100.00;100409.00;5066881;28;20386;-83
2021/11/25 05:47:58;;;;;;;0.20;0.20;;;;;;;3.13;100.00;100410.38;5062613;28;20065;-84
2021/11/25 05:50:31;;;;;;;0.20;0.20;;;;;;;3.10;100.00;100408.19;5067145;28;20059;-83
2021/11/25 05:53:05;;;;;;;0.20;0.20;;;;;;;3.07;100.00;100400.59;5078984;28;20060;-83
2021/11/25 05:55:39;;;;;;;0.20;0.20;;;;;;;3.03;100.00;100389.50;5065343;28;20477;-84
2021/11/25 05:58:12;;;;;;;0.20;0.20;;;;;;;3.04;100.00;100384.94;5061563;28;20045;-84
2021/11/25 06:00:46;;;;;;;0.20;0.20;;;;;;;3.07;100.00;100389.84;5084324;28;20065;-83
2021/11/25 06:03:19;;;;;;;0.10;0.10;;;;;;;3.06;100.00;100380.13;5063532;28;20053;-83
2021/11/25 06:05:52;;;;;;;0.20;0.20;;;;;;;3.05;100.00;100373.94;5069149;28;20098;-83
2021/11/25 06:08:26;;;;;;;0.20;0.20;;;;;;;3.08;100.00;100369.97;5069477;28;20044;-83
2021/11/25 06:11:02;;;;;;;0.25;0.25;;;;;;;3.14;100.00;100370.91;5060192;28;20052;-83
2021/11/25 06:13:31;;;;;;;0.20;0.20;;;;;;;3.06;100.00;100364.81;5061617;28;20057;-83
2021/11/25 06:16:04;;;;;;;0.20;0.20;;;;;;;3.05;100.00;100351.59;5062396;28;20052;-83
2021/11/25 06:18:33;;;;;;;0.15;0.15;;;;;;;2.98;100.00;100354.44;5063611;28;20041;-83
2021/11/25 06:21:02;;;;;;;0.20;0.20;;;;;;;3.02;100.00;100362.84;5064645;28;20063;-83
2021/11/25 06:23:30;;;;;;;0.30;0.30;;;;;;;3.01;100.00;100359.34;5069587;28;20044;-84
2021/11/25 06:25:58;;;;;;;0.20;0.20;;;;;;;2.96;100.00;100372.69;5065276;28;20413;-83
2021/11/25 06:28:28;;;;;;;0.20;0.20;;;;;;;2.82;100.00;100360.56;5060646;28;20036;-83
2021/11/25 06:30:56;;;;;;;0.20;0.20;;;;;;;2.86;100.00;100365.22;5063001;28;20036;-83
2021/11/25 06:33:24;;;;;;;0.20;0.20;;;;;;;2.80;100.00;100359.97;5059974;28;20052;-83
2021/11/25 06:35:58;;;;;;;0.20;0.20;;;;;;;2.83;100.00;100362.16;5064544;28;20045;-83
2021/11/25 06:38:26;;;;;;;0.20;0.20;;;;;;;2.79;100.00;100356.47;5060802;28;20048;-83
2021/11/25 06:41:00;;;;;;;0.20;0.20;;;;;;;2.73;100.00;100354.72;5069203;28;20048;-83
2021/11/25 06:43:35;;;;;;;0.20;0.20;;;;;;;2.73;100.00;100360.09;5068092;28;20052;-83
2021/11/25 06:46:09;;;;;;;0.20;0.20;;;;;;;2.69;100.00;100365.13;5066362;28;20045;-82
2021/11/25 06:48:37;;;;;;;0.20;0.20;;;;;;;2.67;100.00;100345.72;5065424;28;20055;-83
2021/11/25 06:51:05;;;;;;;0.20;0.20;;;;;;;2.66;100.00;100327.16;5069771;28;20052;-84
2021/11/25 06:53:38;;;;;;;0.20;0.20;;;;;;;2.72;100.00;100332.41;5061554;28;20419;-85
2021/11/25 06:56:11;;;;;;;0.20;0.20;;;;;;;2.69;100.00;100332.06;5069258;28;20063;-83
2021/11/25 06:58:47;;;;;;;0.20;0.20;;;;;;;2.70;100.00;100337.19;5066417;28;20044;-84
2021/11/25 07:01:16;;;;;;;0.20;0.20;;;;;;;2.69;100.00;100329.38;5068898;28;20408;-83
2021/11/25 07:03:44;;;;;;;0.25;0.25;;;;;;;2.70;100.00;100342.56;5070915;28;20045;-83
2021/11/25 07:06:17;;;;;;;0.20;0.20;;;;;;;2.70;100.00;100320.25;5065759;28;20701;-83
2021/11/25 07:08:45;;;;;;;0.13;0.13;;;;;;;2.75;100.00;100327.59;5071946;28;20037;-84
2021/11/25 07:11:14;;;;;;;0.20;0.20;;;;;;;2.65;100.00;100304.84;5062558;28;20365;-83
2021/11/25 07:13:49;;;;;;;0.20;0.20;;;;;;;2.75;100.00;100308.78;5066464;28;20378;-84
2021/11/25 07:16:22;;;;;;;0.20;0.20;;;;;;;2.70;100.00;100318.38;5067341;28;20049;-83
2021/11/25 07:18:55;;;;;;;0.20;0.20;;;;;;;2.79;100.00;100308.09;5061817;28;20061;-83
2021/11/25 07:21:28;;;;;;;0.10;0.10;;;;;;;2.74;100.00;100296.44;5074486;28;20044;-83
2021/11/25 07:23:57;;;;;;;0.22;0.22;;;;;;;2.75;100.00;100308.78;5062435;28;20048;-83
2021/11/25 07:26:30;;;;;;;0.17;0.17;;;;;;;2.76;100.00;100310.44;5061901;28;20055;-83
2021/11/25 07:29:04;;;;;;;0.20;0.20;;;;;;;2.74;100.00;100305.28;5068052;28;20408;-83
2021/11/25 07:31:38;;;;;;;0.20;0.20;;;;;;;2.76;100.00;100286.25;5061586;28;20045;-84
2021/11/25 07:34:11;;;;;;;0.20;0.20;;;;;;;2.76;100.00;100288.94;5067365;28;20055;-83
2021/11/25 07:36:44;;;;;;;0.20;0.20;;;;;;;2.79;100.00;100288.44;5065616;28;20069;-84
2021/11/25 07:39:17;;;;;;;0.20;0.20;;;;;;;2.83;100.00;100282.38;5066585;28;20049;-83
2021/11/25 07:41:51;;;;;;;0.30;0.30;;;;;;;2.83;100.00;100277.00;5065938;28;20079;-83
2021/11/25 07:44:27;;;;;;;0.20;0.20;;;;;;;2.87;100.00;100277.31;5064456;28;20056;-83
2021/11/25 07:47:00;;;;;;;0.20;0.20;;;;;;;2.84;100.00;100277.81;5065683;28;20037;-83
2021/11/25 07:49:33;;;;;;;0.20;0.20;;;;;;;2.97;100.00;100276.72;5066743;28;20048;-83
2021/11/25 07:52:01;;;;;;;0.22;0.22;;;;;;;2.95;100.00;100286.91;5066446;28;20056;-82
2021/11/25 07:54:30;;;;;;;0.10;0.10;;;;;;;3.08;100.00;100278.56;5058674;28;20071;-82
2021/11/25 07:57:00;;;;;;;0.30;0.30;;;;;;;3.04;100.00;100267.47;5060251;28;20063;-83
2021/11/25 07:59:29;;;;;;;0.20;0.20;;;;;;;3.06;100.00;100265.34;5065575;28;20041;-84
2021/11/25 08:02:03;;;;;;;0.13;0.13;;;;;;;3.05;100.00;100265.56;5058979;28;20052;-84
2021/11/25 08:04:36;;;;;;;0.17;0.17;;;;;;;3.18;100.00;100261.81;5063979;28;20068;-82
2021/11/25 08:07:04;;;;;;;0.20;0.20;;;;;;;3.15;100.00;100257.72;5063007;28;20095;-83
2021/11/25 08:09:38;;;;;;;0.20;0.20;;;;;;;3.23;100.00;100249.25;5061541;28;20056;-82
2021/11/25 08:12:11;;;;;;;0.20;0.20;;;;;;;3.28;100.00;100258.47;5066450;28;20033;-83
2021/11/25 08:14:46;;;;;;;0.20;0.20;;;;;;;3.30;100.00;100245.59;5069013;28;20044;-81
2021/11/25 08:17:19;;;;;;;0.20;0.20;;;;;;;3.44;100.00;100244.25;5066370;28;20040;-83
2021/11/25 08:19:52;;;;;;;0.20;0.20;;;;;;;3.40;100.00;100243.91;5062854;28;20052;-83
2021/11/25 08:22:25;;;;;;;0.20;0.20;;;;;;;3.49;100.00;100233.53;5067101;28;20044;-83
2021/11/25 08:25:01;;;;;;;0.20;0.20;;;;;;;3.56;100.00;100238.78;5061697;28;20400;-83
2021/11/25 08:27:37;;;;;;;0.30;0.30;;;;;;;3.56;100.00;100236.91;5062728;28;20055;-82
2021/11/25 08:30:14;;;;;;;0.20;0.20;;;;;;;3.54;100.00;100239.03;5063202;28;20545;-83
2021/11/25 08:32:43;;;;;;;0.20;0.20;;;;;;;3.57;100.00;100230.44;5065839;28;20079;-83
2021/11/25 08:35:17;;;;;;;0.20;0.20;;;;;;;3.52;100.00;100214.25;5066160;28;20398;-84
2021/11/25 08:37:51;;;;;;;0.17;0.17;;;;;;;3.68;100.00;100228.75;5063575;28;20048;-82
2021/11/25 08:40:24;;;;;;;0.20;0.20;;;;;;;3.66;100.00;100236.25;5062610;28;20044;-85
2021/11/25 08:42:55;;;;;;;0.22;0.22;;;;;;;3.66;100.00;100228.19;5058996;28;20067;-84
2021/11/25 08:45:24;;;;;;;0.20;0.20;;;;;;;3.72;100.00;100229.09;5062951;28;20048;-83
2021/11/25 08:47:57;;;;;;;0.20;0.20;;;;;;;3.73;100.00;100225.34;5053889;28;20060;-85
2021/11/25 08:50:31;;;;;;;0.20;0.20;;;;;;;3.81;100.00;100226.78;5051794;28;20053;-84
2021/11/25 08:52:59;;;;;;;0.30;0.30;;;;;;;3.75;100.00;100213.25;5069182;28;20835;-85
2021/11/25 08:55:35;;;;;;;0.20;0.20;;;;;;;3.98;100.00;100226.75;5054238;28;20051;-85
2021/11/25 08:58:08;;;;;;;0.20;0.20;;;;;;;3.83;100.00;100220.09;5053715;28;20060;-84
2021/11/25 09:00:37;;;;;;;0.30;0.30;;;;;;;3.89;100.00;100213.75;5058485;28;20052;-84
2021/11/25 09:03:06;;;;;;;0.20;0.20;;;;;;;3.99;100.00;100214.94;5056556;28;20052;-84
2021/11/25 09:05:39;;;;;;;0.20;0.20;;;;;;;3.81;100.00;100202.56;5056343;28;20068;-85
2021/11/25 09:08:13;;;;;;;0.30;0.30;;;;;;;3.89;100.00;100197.59;5054514;28;20053;-84
2021/11/25 09:10:46;;;;;;;0.30;0.30;;;;;;;3.90;100.00;100201.88;5059069;28;20512;-84
2021/11/25 09:13:14;;;;;;;0.20;0.20;;;;;;;4.07;100.00;100201.88;5057012;28;20045;-84
2021/11/25 09:15:44;;;;;;;0.30;0.30;;;;;;;4.13;100.00;100201.94;5059005;28;20052;-84
2021/11/25 09:18:17;;;;;;;0.20;0.20;;;;;;;4.16;100.00;100196.88;5057891;28;20798;-85
2021/11/25 09:20:51;;;;;;;0.20;0.20;;;;;;;4.16;100.00;100188.78;5059553;28;20067;-84
2021/11/25 09:23:24;;;;;;;0.20;0.20;;;;;;;4.19;100.00;100185.59;5055451;28;20052;-85
2021/11/25 09:25:58;;;;;;;0.20;0.20;;;;;;;4.26;100.00;100188.09;5053705;28;20061;-84
2021/11/25 09:28:27;;;;;;;0.20;0.20;;;;;;;4.23;100.00;100189.41;5053459;28;20063;-85
2021/11/25 09:30:56;;;;;;;0.30;0.30;;;;;;;4.29;100.00;100168.75;5056247;28;20856;-85
2021/11/25 09:33:30;;;;;;;0.20;0.20;;;;;;;4.19;100.00;100168.63;5071138;28;20052;-86
2021/11/25 09:36:03;;;;;;;0.20;0.20;;;;;;;4.44;100.00;100189.69;5055887;28;20052;-84
2021/11/25 09:38:36;;;;;;;0.20;0.20;;;;;;;4.39;100.00;100185.06;5054007;28;20044;-85
2021/11/25 09:41:10;;;;;;;0.20;0.20;;;;;;;4.46;100.00;100184.88;5053778;28;20054;-84
2021/11/25 09:43:43;;;;;;;0.30;0.30;;;;;;;4.40;100.00;100175.88;5051516;28;20056;-84
2021/11/25 09:46:19;;;;;;;0.20;0.20;;;;;;;4.45;100.00;100169.75;5051798;28;20048;-85
2021/11/25 09:48:54;;;;;;;0.20;0.20;;;;;;;4.42;100.00;100160.28;5053795;28;20067;-85
2021/11/25 09:51:27;;;;;;;0.17;0.17;;;;;;;4.46;100.00;100171.41;5053661;28;20724;-85
2021/11/25 09:54:01;;;;;;;0.20;0.20;;;;;;;4.48;100.00;100163.84;5056300;28;20122;-84
2021/11/25 09:56:34;;;;;;;0.20;0.20;;;;;;;4.50;100.00;100171.69;5053501;28;20052;-85
2021/11/25 09:59:07;;;;;;;0.20;0.20;;;;;;;4.52;100.00;100165.00;5053907;28;20099;-84
2021/11/25 10:01:37;;;;;;;0.20;0.20;;;;;;;4.50;100.00;100160.91;5049850;28;20048;-84
2021/11/25 10:04:10;;;;;;;0.30;0.30;;;;;;;4.69;100.00;100153.31;5051763;28;20045;-84
2021/11/25 10:06:51;;;;;;;0.28;0.28;;;;;;;4.69;100.00;100151.41;5052871;28;20041;-84
2021/11/25 10:09:30;;;;;;;0.20;0.20;;;;;;;4.58;100.00;100152.38;5049192;28;20057;-84
2021/11/25 10:11:59;;;;;;;0.25;0.25;;;;;;;4.50;100.00;100134.78;5052141;28;20052;-85
2021/11/25 10:14:38;;;;;;;0.13;0.13;;;;;;;4.53;100.00;100128.06;5057281;28;20056;-84
2021/11/25 10:17:13;;;;;;;0.20;0.20;;;;;;;4.66;100.00;100130.38;5053794;28;20608;-84
2021/11/25 10:20:05;;;;;;;0.13;0.13;;;;;;;4.70;100.00;100125.28;5058715;28;20044;-83
2021/11/25 10:22:39;;;;;;;0.20;0.20;;;;;;;4.63;100.00;100127.34;5055655;28;20051;-84
2021/11/25 10:25:12;;;;;;;0.20;0.20;;;;;;;4.72;100.00;100118.59;5058592;28;20052;-84
2021/11/25 10:27:47;;;;;;;0.22;0.22;;;;;;;4.80;100.00;100119.19;5057660;28;20061;-85
2021/11/25 10:30:18;;;;;;;0.22;0.22;;;;;;;4.68;100.00;100132.81;5058426;28;20064;-83
2021/11/25 10:32:58;;;;;;;0.20;0.20;;;;;;;4.67;100.00;100121.22;5055451;28;20044;-84
2021/11/25 10:35:42;;;;;;;0.20;0.20;;;;;;;4.69;100.00;100118.28;5055541;28;20063;-86
2021/11/25 10:38:35;;;;;;;0.20;0.20;;;;;;;4.74;100.00;100107.53;5057530;28;20044;-85
2021/11/25 10:41:17;;;;;;;0.20;0.20;;;;;;;4.81;100.00;100110.84;5057747;28;20048;-85
2021/11/25 10:44:11;;;;;;;0.15;0.15;;;;;;;4.81;100.00;100088.47;5056235;28;20666;-84
2021/11/25 10:46:52;;;;;;;0.20;0.20;;;;;;;4.89;100.00;100091.50;5056373;28;20049;-85
2021/11/25 10:49:44;;;;;;;0.20;0.20;;;;;;;4.86;100.00;100086.63;5054264;28;20056;-85
2021/11/25 10:52:26;;;;;;;0.20;0.20;;;;;;;4.98;100.00;100089.13;5054594;28;20056;-84
2021/11/25 10:55:01;;;;;;;0.20;0.20;;;;;;;4.82;100.00;100047.78;5063229;28;20064;-86
2021/11/25 10:57:38;;;;;;;0.20;0.20;;;;;;;4.95;100.00;100062.69;5057020;28;20048;-85
2021/11/25 11:00:16;;;;;;;0.30;0.30;;;;;;;5.08;100.00;100074.91;5060443;28;20055;-85
2021/11/25 11:03:03;;;;;;;0.30;0.30;;;;;;;5.19;100.00;100068.56;5069912;28;20048;-84
2021/11/25 11:05:44;;;;;;;0.20;0.20;;;;;;;5.09;100.00;100071.97;5057163;28;20708;-82
2021/11/25 11:08:18;;;;;;;0.20;0.20;;;;;;;5.03;100.00;100064.13;5058711;28;20056;-85
2021/11/25 11:10:52;;;;;;;0.20;0.20;;;;;;;5.06;100.00;100064.41;5063687;28;20397;-84
2021/11/25 11:13:37;;;;;;;0.20;0.20;;;;;;;5.02;100.00;100063.28;5070844;28;20056;-85
2021/11/25 11:19:01;;;;;;;0.20;0.20;;;;;;;4.82;100.00;100042.38;5054822;28;20072;-85
2021/11/25 11:21:39;;;;;;;0.20;0.20;;;;;;;4.91;100.00;100067.78;5056331;28;20047;-85
2021/11/25 11:24:14;;;;;;;0.20;0.20;;;;;;;5.05;100.00;100061.97;5054741;28;20048;-83
2021/11/25 11:26:51;;;;;;;0.20;0.20;;;;;;;5.03;100.00;100061.41;5053459;28;20056;-85
2021/11/25 11:29:27;;;;;;;0.30;0.30;;;;;;;5.00;100.00;100034.94;5052610;28;20055;-84
2021/11/25 11:32:04;;;;;;;0.20;0.20;;;;;;;5.08;100.00;100050.66;5049478;28;20059;-84
2021/11/25 11:34:33;;;;;;;0.30;0.30;;;;;;;5.09;100.00;100058.47;5051045;28;20053;-82
2021/11/25 11:37:08;;;;;;;0.20;0.20;;;;;;;5.09;100.00;100041.50;5056525;28;20048;-83
2021/11/25 11:39:41;;;;;;;0.30;0.30;;;;;;;4.93;100.00;100049.47;5053168;28;20575;-82
2021/11/25 11:42:15;;;;;;;0.20;0.20;;;;;;;4.87;100.00;100045.09;5051493;28;20055;-84
2021/11/25 11:44:50;;;;;;;0.30;0.30;;;;;;;4.96;100.00;100039.22;5050980;28;21654;-82
2021/11/25 11:47:25;;;;;;;0.20;0.20;;;;;;;4.83;100.00;100027.00;5050459;28;20056;-82
2021/11/25 11:50:02;;;;;;;0.10;0.10;;;;;;;4.91;100.00;100035.41;5051534;28;21561;-82
2021/11/25 11:52:55;;;;;;;0.20;0.20;;;;;;;4.96;100.00;100023.88;5051001;28;20064;-82
2021/11/25 11:55:39;;;;;;;0.20;0.20;;;;;;;4.85;100.00;100014.09;5056232;28;20593;-82
2021/11/25 11:58:28;;;;;;;0.20;0.20;;;;;;;4.79;100.00;100015.91;5049498;28;20040;-82
2021/11/25 12:00:59;;;;;;;0.30;0.30;;;;;;;4.81;100.00;100011.09;5050259;28;20048;-82